sensor_id;sensor_type;location;lat;lon;timestamp;P1;durP1;ratioP1;P2;durP2;ratioP2
5237;SDS011;2639;49.700;7.962;2022-09-03T06:51:40;6.60;;;5.60;;
5237;SDS011;2639;49.700;7.962;2022-09-03T06:54:51;7.97;;;5.17;;
5237;SDS011;2639;49.700;7.962;2022-09-03T06:58:00;6.03;;;5.43;;
5237;SDS011;2639;49.700;7.962;2022-09-03T07:01:11;4.07;;;3.67;;
5237;SDS011;2639;49.700;7.962;2022-09-03T07:04:22;5.23;;;4.63;;
5237;SDS011;2639;49.700;7.962;2022-09-03T07:07:33;9.53;;;6.50;;
5237;SDS011;2639;49.700;7.962;2022-09-03T07:10:44;5.90;;;5.33;;
5237;SDS011;2639;49.700;7.962;2022-09-03T07:13:56;7.10;;;6.50;;
5237;SDS011;2639;49.700;7.962;2022-09-03T07:17:06;8.00;;;6.53;;
5237;SDS011;2639;49.700;7.962;2022-09-03T07:20:16;6.73;;;6.13;;
5237;SDS011;2639;49.700;7.962;2022-09-03T07:23:27;6.77;;;6.07;;
5237;SDS011;2639;49.700;7.962;2022-09-03T07:26:39;7.30;;;6.40;;
5237;SDS011;2639;49.700;7.962;2022-09-03T07:29:51;6.43;;;5.83;;
5237;SDS011;2639;49.700;7.962;2022-09-03T07:33:01;8.20;;;7.50;;
5237;SDS011;2639;49.700;7.962;2022-09-03T07:36:12;4.67;;;4.23;;
5237;SDS011;2639;49.700;7.962;2022-09-03T07:39:25;6.00;;;5.10;;
5237;SDS011;2639;49.700;7.962;2022-09-03T07:42:35;5.27;;;4.73;;
5237;SDS011;2639;49.700;7.962;2022-09-03T07:45:49;5.60;;;4.57;;
5237;SDS011;2639;49.700;7.962;2022-09-03T07:48:59;4.67;;;4.00;;
5237;SDS011;2639;49.700;7.962;2022-09-03T07:52:09;6.37;;;5.77;;
5237;SDS011;2639;49.700;7.962;2022-09-03T07:55:22;7.13;;;6.53;;
5237;SDS011;2639;49.700;7.962;2022-09-03T07:58:35;7.57;;;6.73;;
5237;SDS011;2639;49.700;7.962;2022-09-03T08:01:45;9.30;;;6.77;;
5237;SDS011;2639;49.700;7.962;2022-09-03T08:04:54;7.23;;;6.53;;
5237;SDS011;2639;49.700;7.962;2022-09-03T08:08:11;5.57;;;5.07;;
5237;SDS011;2639;49.700;7.962;2022-09-03T08:11:28;5.20;;;4.70;;
5237;SDS011;2639;49.700;7.962;2022-09-03T08:14:38;6.33;;;5.73;;
5237;SDS011;2639;49.700;7.962;2022-09-03T08:17:52;6.67;;;6.07;;
5237;SDS011;2639;49.700;7.962;2022-09-03T08:21:13;7.33;;;6.73;;
5237;SDS011;2639;49.700;7.962;2022-09-03T08:24:24;5.10;;;4.70;;
5237;SDS011;2639;49.700;7.962;2022-09-03T08:27:35;6.17;;;5.20;;
5237;SDS011;2639;49.700;7.962;2022-09-03T08:30:45;8.37;;;7.67;;
5237;SDS011;2639;49.700;7.962;2022-09-03T08:42:09;8.80;;;8.00;;
5237;SDS011;2639;49.700;7.962;2022-09-03T08:45:28;7.73;;;6.93;;
5237;SDS011;2639;49.700;7.962;2022-09-03T08:48:39;8.53;;;7.07;;
5237;SDS011;2639;49.700;7.962;2022-09-03T08:51:49;6.43;;;5.90;;
5237;SDS011;2639;49.700;7.962;2022-09-03T08:55:08;10.43;;;6.60;;
5237;SDS011;2639;49.700;7.962;2022-09-03T08:58:26;6.07;;;5.57;;
5237;SDS011;2639;49.700;7.962;2022-09-03T09:01:45;7.03;;;6.50;;
5237;SDS011;2639;49.700;7.962;2022-09-03T09:05:04;7.03;;;6.40;;
5237;SDS011;2639;49.700;7.962;2022-09-03T09:08:23;4.87;;;4.47;;
5237;SDS011;2639;49.700;7.962;2022-09-03T09:11:41;5.97;;;5.50;;
5237;SDS011;2639;49.700;7.962;2022-09-03T09:15:03;5.70;;;5.10;;
5237;SDS011;2639;49.700;7.962;2022-09-03T09:18:21;6.60;;;6.03;;
5237;SDS011;2639;49.700;7.962;2022-09-03T09:21:39;6.17;;;5.63;;
5237;SDS011;2639;49.700;7.962;2022-09-03T09:24:54;6.90;;;6.20;;
5237;SDS011;2639;49.700;7.962;2022-09-03T09:28:10;5.80;;;5.40;;
5237;SDS011;2639;49.700;7.962;2022-09-03T09:31:25;6.07;;;5.57;;
5237;SDS011;2639;49.700;7.962;2022-09-03T09:34:39;5.70;;;5.23;;
5237;SDS011;2639;49.700;7.962;2022-09-03T09:37:49;6.10;;;5.43;;
5237;SDS011;2639;49.700;7.962;2022-09-03T09:41:07;5.10;;;4.70;;
5237;SDS011;2639;49.700;7.962;2022-09-03T09:44:18;6.20;;;5.60;;
5237;SDS011;2639;49.700;7.962;2022-09-03T09:47:30;5.17;;;4.73;;
5237;SDS011;2639;49.700;7.962;2022-09-03T09:50:46;4.67;;;4.27;;
5237;SDS011;2639;49.700;7.962;2022-09-03T09:53:59;4.23;;;3.93;;
5237;SDS011;2639;49.700;7.962;2022-09-03T09:57:13;6.33;;;5.80;;
5237;SDS011;2639;49.700;7.962;2022-09-03T10:00:25;5.00;;;4.60;;
5237;SDS011;2639;49.700;7.962;2022-09-03T10:03:35;4.57;;;3.97;;
5237;SDS011;2639;49.700;7.962;2022-09-03T10:06:53;5.13;;;4.73;;
5237;SDS011;2639;49.700;7.962;2022-09-03T10:10:06;4.67;;;4.27;;
5237;SDS011;2639;49.700;7.962;2022-09-03T10:13:37;4.20;;;3.90;;
5237;SDS011;2639;49.700;7.962;2022-09-03T10:16:53;3.70;;;3.40;;
5237;SDS011;2639;49.700;7.962;2022-09-03T10:20:10;3.50;;;2.60;;
5237;SDS011;2639;49.700;7.962;2022-09-03T10:23:38;3.63;;;3.33;;
5237;SDS011;2639;49.700;7.962;2022-09-03T10:26:57;3.73;;;3.07;;
5237;SDS011;2639;49.700;7.962;2022-09-03T10:30:06;3.40;;;3.10;;
5237;SDS011;2639;49.700;7.962;2022-09-03T10:33:18;2.53;;;2.33;;
5237;SDS011;2639;49.700;7.962;2022-09-03T10:36:35;4.20;;;3.90;;
5237;SDS011;2639;49.700;7.962;2022-09-03T10:39:55;4.90;;;4.50;;
5237;SDS011;2639;49.700;7.962;2022-09-03T10:43:16;4.50;;;4.10;;
5237;SDS011;2639;49.700;7.962;2022-09-03T10:46:43;3.60;;;3.30;;
5237;SDS011;2639;49.700;7.962;2022-09-03T10:50:07;4.43;;;4.03;;
5237;SDS011;2639;49.700;7.962;2022-09-03T10:53:27;5.43;;;4.93;;
5237;SDS011;2639;49.700;7.962;2022-09-03T10:56:51;4.93;;;4.53;;
5237;SDS011;2639;49.700;7.962;2022-09-03T11:00:06;4.63;;;4.23;;
5237;SDS011;2639;49.700;7.962;2022-09-03T11:03:27;4.80;;;4.40;;
5237;SDS011;2639;49.700;7.962;2022-09-03T11:06:53;4.40;;;4.00;;
5237;SDS011;2639;49.700;7.962;2022-09-03T11:10:11;5.30;;;4.20;;
5237;SDS011;2639;49.700;7.962;2022-09-03T11:13:26;4.00;;;3.67;;
5237;SDS011;2639;49.700;7.962;2022-09-03T11:16:44;2.97;;;2.77;;
5237;SDS011;2639;49.700;7.962;2022-09-03T11:19:58;4.03;;;3.10;;
5237;SDS011;2639;49.700;7.962;2022-09-03T11:23:16;2.17;;;2.03;;
5237;SDS011;2639;49.700;7.962;2022-09-03T11:26:28;2.57;;;2.37;;
5237;SDS011;2639;49.700;7.962;2022-09-03T11:29:40;2.60;;;2.40;;
5237;SDS011;2639;49.700;7.962;2022-09-03T11:32:59;4.47;;;3.47;;
5237;SDS011;2639;49.700;7.962;2022-09-03T11:36:22;3.63;;;3.33;;
5237;SDS011;2639;49.700;7.962;2022-09-03T11:39:39;3.43;;;3.13;;
5237;SDS011;2639;49.700;7.962;2022-09-03T11:42:48;3.97;;;3.63;;
5237;SDS011;2639;49.700;7.962;2022-09-03T11:46:04;4.13;;;3.73;;
5237;SDS011;2639;49.700;7.962;2022-09-03T11:49:24;4.03;;;3.50;;
5237;SDS011;2639;49.700;7.962;2022-09-03T11:52:38;3.87;;;3.57;;
5237;SDS011;2639;49.700;7.962;2022-09-03T11:55:49;3.80;;;3.50;;
5237;SDS011;2639;49.700;7.962;2022-09-03T11:59:05;4.33;;;4.00;;
5237;SDS011;2639;49.700;7.962;2022-09-03T12:02:28;4.80;;;4.23;;
5237;SDS011;2639;49.700;7.962;2022-09-03T12:05:43;5.13;;;4.83;;
5237;SDS011;2639;49.700;7.962;2022-09-03T12:09:05;4.90;;;4.50;;
5237;SDS011;2639;49.700;7.962;2022-09-03T12:12:31;4.50;;;4.13;;
5237;SDS011;2639;49.700;7.962;2022-09-03T12:16:04;4.50;;;4.20;;
5237;SDS011;2639;49.700;7.962;2022-09-03T12:19:31;3.70;;;3.50;;
5237;SDS011;2639;49.700;7.962;2022-09-03T12:22:48;4.90;;;3.43;;
5237;SDS011;2639;49.700;7.962;2022-09-03T12:25:58;4.23;;;3.83;;
5237;SDS011;2639;49.700;7.962;2022-09-03T12:29:19;4.10;;;3.70;;
5237;SDS011;2639;49.700;7.962;2022-09-03T12:32:35;3.03;;;2.83;;
5237;SDS011;2639;49.700;7.962;2022-09-03T12:35:55;3.10;;;2.90;;
5237;SDS011;2639;49.700;7.962;2022-09-03T12:39:07;3.00;;;2.50;;
5237;SDS011;2639;49.700;7.962;2022-09-03T12:42:22;5.47;;;3.10;;
5237;SDS011;2639;49.700;7.962;2022-09-03T12:45:40;3.60;;;3.30;;
5237;SDS011;2639;49.700;7.962;2022-09-03T12:49:13;3.97;;;3.27;;
5237;SDS011;2639;49.700;7.962;2022-09-03T12:52:40;3.30;;;2.90;;
5237;SDS011;2639;49.700;7.962;2022-09-03T12:55:57;3.03;;;2.83;;
5237;SDS011;2639;49.700;7.962;2022-09-03T12:59:10;3.80;;;3.50;;
5237;SDS011;2639;49.700;7.962;2022-09-03T13:02:25;4.00;;;3.60;;
5237;SDS011;2639;49.700;7.962;2022-09-03T13:05:40;4.00;;;3.70;;
5237;SDS011;2639;49.700;7.962;2022-09-03T13:08:58;2.97;;;2.67;;
5237;SDS011;2639;49.700;7.962;2022-09-03T13:12:19;3.83;;;3.53;;
5237;SDS011;2639;49.700;7.962;2022-09-03T13:15:31;3.20;;;3.00;;
5237;SDS011;2639;49.700;7.962;2022-09-03T13:18:42;3.50;;;3.20;;
5237;SDS011;2639;49.700;7.962;2022-09-03T13:21:58;3.20;;;2.97;;
5237;SDS011;2639;49.700;7.962;2022-09-03T13:25:14;3.23;;;2.90;;
5237;SDS011;2639;49.700;7.962;2022-09-03T13:28:36;3.00;;;2.70;;
5237;SDS011;2639;49.700;7.962;2022-09-03T13:31:57;3.23;;;2.40;;
5237;SDS011;2639;49.700;7.962;2022-09-03T13:35:16;2.80;;;2.60;;
5237;SDS011;2639;49.700;7.962;2022-09-03T13:38:36;2.70;;;2.43;;
5237;SDS011;2639;49.700;7.962;2022-09-03T13:41:53;2.33;;;2.10;;
5237;SDS011;2639;49.700;7.962;2022-09-03T13:45:10;2.53;;;2.20;;
5237;SDS011;2639;49.700;7.962;2022-09-03T13:48:29;2.20;;;1.80;;
5237;SDS011;2639;49.700;7.962;2022-09-03T13:51:54;2.97;;;1.93;;
5237;SDS011;2639;49.700;7.962;2022-09-03T13:55:07;1.70;;;1.60;;
5237;SDS011;2639;49.700;7.962;2022-09-03T13:58:25;1.90;;;1.80;;
5237;SDS011;2639;49.700;7.962;2022-09-03T14:01:42;1.80;;;1.70;;
5237;SDS011;2639;49.700;7.962;2022-09-03T14:05:08;2.00;;;1.80;;
5237;SDS011;2639;49.700;7.962;2022-09-03T14:08:24;1.80;;;1.70;;
5237;SDS011;2639;49.700;7.962;2022-09-03T14:11:47;1.90;;;1.80;;
5237;SDS011;2639;49.700;7.962;2022-09-03T14:15:09;1.90;;;1.80;;
5237;SDS011;2639;49.700;7.962;2022-09-03T14:18:33;1.90;;;1.80;;
5237;SDS011;2639;49.700;7.962;2022-09-03T14:21:50;2.17;;;2.00;;
5237;SDS011;2639;49.700;7.962;2022-09-03T14:25:08;1.80;;;1.70;;
5237;SDS011;2639;49.700;7.962;2022-09-03T14:28:27;1.90;;;1.80;;
5237;SDS011;2639;49.700;7.962;2022-09-03T14:31:48;1.80;;;1.70;;
5237;SDS011;2639;49.700;7.962;2022-09-03T14:35:19;2.03;;;1.83;;
5237;SDS011;2639;49.700;7.962;2022-09-03T14:38:45;2.00;;;1.80;;
5237;SDS011;2639;49.700;7.962;2022-09-03T14:42:22;1.90;;;1.80;;
5237;SDS011;2639;49.700;7.962;2022-09-03T14:45:50;3.20;;;1.87;;
5237;SDS011;2639;49.700;7.962;2022-09-03T14:49:17;2.17;;;1.97;;
5237;SDS011;2639;49.700;7.962;2022-09-03T14:52:40;2.33;;;2.13;;
5237;SDS011;2639;49.700;7.962;2022-09-03T14:56:15;2.17;;;2.07;;
5237;SDS011;2639;49.700;7.962;2022-09-03T14:59:39;2.73;;;2.10;;
5237;SDS011;2639;49.700;7.962;2022-09-03T15:03:10;3.37;;;2.20;;
5237;SDS011;2639;49.700;7.962;2022-09-03T15:06:35;2.50;;;2.30;;
5237;SDS011;2639;49.700;7.962;2022-09-03T15:10:01;2.30;;;2.10;;
5237;SDS011;2639;49.700;7.962;2022-09-03T15:13:20;2.33;;;2.13;;
5237;SDS011;2639;49.700;7.962;2022-09-03T15:16:35;2.87;;;2.10;;
5237;SDS011;2639;49.700;7.962;2022-09-03T15:20:00;2.50;;;2.30;;
5237;SDS011;2639;49.700;7.962;2022-09-03T15:23:22;4.27;;;2.80;;
5237;SDS011;2639;49.700;7.962;2022-09-03T15:26:37;2.53;;;1.57;;
5237;SDS011;2639;49.700;7.962;2022-09-03T15:29:57;2.60;;;1.30;;
5237;SDS011;2639;49.700;7.962;2022-09-03T15:33:16;2.87;;;1.40;;
5237;SDS011;2639;49.700;7.962;2022-09-03T15:36:36;1.43;;;0.80;;
5237;SDS011;2639;49.700;7.962;2022-09-03T15:39:56;1.27;;;0.70;;
5237;SDS011;2639;49.700;7.962;2022-09-03T15:43:15;1.00;;;0.80;;
5237;SDS011;2639;49.700;7.962;2022-09-03T15:46:33;0.87;;;0.80;;
5237;SDS011;2639;49.700;7.962;2022-09-03T15:49:51;1.20;;;0.80;;
5237;SDS011;2639;49.700;7.962;2022-09-03T15:53:13;0.80;;;0.80;;
5237;SDS011;2639;49.700;7.962;2022-09-03T15:56:35;2.17;;;0.83;;
5237;SDS011;2639;49.700;7.962;2022-09-03T15:59:53;2.00;;;1.20;;
5237;SDS011;2639;49.700;7.962;2022-09-03T16:03:13;4.50;;;1.60;;
5237;SDS011;2639;49.700;7.962;2022-09-03T16:06:32;3.63;;;1.30;;
5237;SDS011;2639;49.700;7.962;2022-09-03T16:09:55;4.07;;;1.27;;
5237;SDS011;2639;49.700;7.962;2022-09-03T16:13:38;3.23;;;1.40;;
5237;SDS011;2639;49.700;7.962;2022-09-03T16:16:59;2.67;;;1.10;;
5237;SDS011;2639;49.700;7.962;2022-09-03T16:20:14;3.23;;;1.20;;
5237;SDS011;2639;49.700;7.962;2022-09-03T16:23:30;2.80;;;1.30;;
5237;SDS011;2639;49.700;7.962;2022-09-03T16:26:48;2.83;;;1.33;;
5237;SDS011;2639;49.700;7.962;2022-09-03T16:30:08;2.07;;;1.13;;
5237;SDS011;2639;49.700;7.962;2022-09-03T16:33:21;2.40;;;0.80;;
5237;SDS011;2639;49.700;7.962;2022-09-03T16:36:43;2.17;;;1.20;;
5237;SDS011;2639;49.700;7.962;2022-09-03T16:40:05;1.50;;;1.00;;
5237;SDS011;2639;49.700;7.962;2022-09-03T16:43:25;3.47;;;1.50;;
5237;SDS011;2639;49.700;7.962;2022-09-03T16:46:52;1.83;;;1.07;;
5237;SDS011;2639;49.700;7.962;2022-09-03T16:50:13;2.90;;;1.00;;
5237;SDS011;2639;49.700;7.962;2022-09-03T16:53:38;2.83;;;1.30;;
5237;SDS011;2639;49.700;7.962;2022-09-03T16:57:02;1.23;;;1.10;;
5237;SDS011;2639;49.700;7.962;2022-09-03T17:00:22;3.27;;;1.90;;
5237;SDS011;2639;49.700;7.962;2022-09-03T17:03:42;1.50;;;1.27;;
5237;SDS011;2639;49.700;7.962;2022-09-03T17:07:07;1.27;;;0.93;;
5237;SDS011;2639;49.700;7.962;2022-09-03T17:10:35;2.90;;;1.17;;
5237;SDS011;2639;49.700;7.962;2022-09-03T17:13:56;3.87;;;1.30;;
5237;SDS011;2639;49.700;7.962;2022-09-03T17:17:21;1.50;;;1.40;;
5237;SDS011;2639;49.700;7.962;2022-09-03T17:20:47;2.20;;;2.00;;
5237;SDS011;2639;49.700;7.962;2022-09-03T17:24:08;2.83;;;2.63;;
5237;SDS011;2639;49.700;7.962;2022-09-03T17:27:34;2.97;;;2.20;;
5237;SDS011;2639;49.700;7.962;2022-09-03T17:30:55;2.67;;;2.30;;
5237;SDS011;2639;49.700;7.962;2022-09-03T17:34:08;1.93;;;1.40;;
5237;SDS011;2639;49.700;7.962;2022-09-03T17:37:30;3.83;;;2.33;;
5237;SDS011;2639;49.700;7.962;2022-09-03T17:40:55;3.07;;;2.27;;
5237;SDS011;2639;49.700;7.962;2022-09-03T17:44:13;2.23;;;1.70;;
5237;SDS011;2639;49.700;7.962;2022-09-03T17:47:32;2.87;;;1.90;;
5237;SDS011;2639;49.700;7.962;2022-09-03T17:50:57;2.10;;;1.70;;
5237;SDS011;2639;49.700;7.962;2022-09-03T17:54:16;2.10;;;1.60;;
5237;SDS011;2639;49.700;7.962;2022-09-03T17:57:37;2.73;;;1.80;;
5237;SDS011;2639;49.700;7.962;2022-09-03T18:00:52;2.87;;;1.47;;
5237;SDS011;2639;49.700;7.962;2022-09-03T18:04:12;4.50;;;1.77;;
5237;SDS011;2639;49.700;7.962;2022-09-03T18:07:37;2.67;;;1.70;;
5237;SDS011;2639;49.700;7.962;2022-09-03T18:10:57;3.87;;;2.30;;
5237;SDS011;2639;49.700;7.962;2022-09-03T18:14:19;4.13;;;2.30;;
5237;SDS011;2639;49.700;7.962;2022-09-03T18:17:36;3.57;;;1.97;;
5237;SDS011;2639;49.700;7.962;2022-09-03T18:20:54;3.30;;;2.60;;
5237;SDS011;2639;49.700;7.962;2022-09-03T18:24:39;3.20;;;2.60;;
5237;SDS011;2639;49.700;7.962;2022-09-03T18:28:04;3.07;;;2.00;;
5237;SDS011;2639;49.700;7.962;2022-09-03T18:31:33;5.00;;;3.17;;
5237;SDS011;2639;49.700;7.962;2022-09-03T18:34:54;2.47;;;2.10;;
5237;SDS011;2639;49.700;7.962;2022-09-03T18:38:22;2.43;;;2.13;;
5237;SDS011;2639;49.700;7.962;2022-09-03T18:41:53;2.90;;;2.60;;
5237;SDS011;2639;49.700;7.962;2022-09-03T18:45:27;3.10;;;2.00;;
5237;SDS011;2639;49.700;7.962;2022-09-03T18:49:15;3.63;;;2.80;;
5237;SDS011;2639;49.700;7.962;2022-09-03T18:52:50;10.40;;;3.50;;
5237;SDS011;2639;49.700;7.962;2022-09-03T18:56:18;11.07;;;3.73;;
5237;SDS011;2639;49.700;7.962;2022-09-03T18:59:52;196.37;;;13.03;;
5237;SDS011;2639;49.700;7.962;2022-09-03T19:03:25;11.63;;;4.03;;
5237;SDS011;2639;49.700;7.962;2022-09-03T19:07:03;2.87;;;2.60;;
5237;SDS011;2639;49.700;7.962;2022-09-03T19:10:28;2.30;;;1.90;;
5237;SDS011;2639;49.700;7.962;2022-09-03T19:13:57;3.50;;;1.97;;
5237;SDS011;2639;49.700;7.962;2022-09-03T19:17:29;7.90;;;2.50;;
5237;SDS011;2639;49.700;7.962;2022-09-03T19:21:02;3.27;;;2.70;;
5237;SDS011;2639;49.700;7.962;2022-09-03T19:24:35;5.73;;;2.77;;
5237;SDS011;2639;49.700;7.962;2022-09-03T19:27:58;3.80;;;2.13;;
5237;SDS011;2639;49.700;7.962;2022-09-03T19:31:34;6.10;;;3.33;;
5237;SDS011;2639;49.700;7.962;2022-09-03T19:35:04;2.33;;;2.13;;
5237;SDS011;2639;49.700;7.962;2022-09-03T19:38:38;6.27;;;2.60;;
5237;SDS011;2639;49.700;7.962;2022-09-03T19:42:09;2.43;;;1.90;;
5237;SDS011;2639;49.700;7.962;2022-09-03T19:45:40;4.60;;;2.57;;
5237;SDS011;2639;49.700;7.962;2022-09-03T19:49:13;3.60;;;2.47;;
5237;SDS011;2639;49.700;7.962;2022-09-03T19:52:44;7.43;;;2.87;;
5237;SDS011;2639;49.700;7.962;2022-09-03T19:56:17;7.23;;;3.50;;
5237;SDS011;2639;49.700;7.962;2022-09-03T19:59:46;4.70;;;2.37;;
5237;SDS011;2639;49.700;7.962;2022-09-03T20:03:08;107.33;;;8.57;;
5237;SDS011;2639;49.700;7.962;2022-09-03T20:06:32;2.40;;;2.20;;
5237;SDS011;2639;49.700;7.962;2022-09-03T20:09:56;6.57;;;2.67;;
5237;SDS011;2639;49.700;7.962;2022-09-03T20:13:24;29.33;;;5.03;;
5237;SDS011;2639;49.700;7.962;2022-09-03T20:16:59;4.67;;;2.47;;
5237;SDS011;2639;49.700;7.962;2022-09-03T20:20:24;6.73;;;3.53;;
5237;SDS011;2639;49.700;7.962;2022-09-03T20:23:43;2.67;;;2.20;;
5237;SDS011;2639;49.700;7.962;2022-09-03T20:27:02;2.53;;;1.87;;
5237;SDS011;2639;49.700;7.962;2022-09-03T20:30:20;1.73;;;1.63;;
5237;SDS011;2639;49.700;7.962;2022-09-03T20:33:40;2.93;;;1.97;;
5237;SDS011;2639;49.700;7.962;2022-09-03T20:37:02;2.30;;;2.07;;
5237;SDS011;2639;49.700;7.962;2022-09-03T20:40:24;2.40;;;1.87;;
5237;SDS011;2639;49.700;7.962;2022-09-03T20:43:48;2.73;;;2.10;;
5237;SDS011;2639;49.700;7.962;2022-09-03T20:47:13;3.20;;;2.20;;
5237;SDS011;2639;49.700;7.962;2022-09-03T20:50:38;3.23;;;2.00;;
5237;SDS011;2639;49.700;7.962;2022-09-03T20:53:58;2.30;;;2.10;;
5237;SDS011;2639;49.700;7.962;2022-09-03T20:57:21;2.20;;;1.60;;
5237;SDS011;2639;49.700;7.962;2022-09-03T21:00:42;3.30;;;2.93;;
5237;SDS011;2639;49.700;7.962;2022-09-03T21:04:02;2.03;;;1.70;;
5237;SDS011;2639;49.700;7.962;2022-09-03T21:07:28;1.83;;;1.73;;
5237;SDS011;2639;49.700;7.962;2022-09-03T21:10:51;2.23;;;1.80;;
5237;SDS011;2639;49.700;7.962;2022-09-03T21:14:07;2.43;;;2.20;;
5237;SDS011;2639;49.700;7.962;2022-09-03T21:17:28;3.33;;;2.40;;
5237;SDS011;2639;49.700;7.962;2022-09-03T21:20:53;2.37;;;2.03;;
5237;SDS011;2639;49.700;7.962;2022-09-03T21:24:10;4.60;;;1.83;;
5237;SDS011;2639;49.700;7.962;2022-09-03T21:27:26;2.53;;;2.30;;
5237;SDS011;2639;49.700;7.962;2022-09-03T21:30:42;4.70;;;2.07;;
5237;SDS011;2639;49.700;7.962;2022-09-03T21:33:57;4.23;;;2.00;;
5237;SDS011;2639;49.700;7.962;2022-09-03T21:37:17;3.37;;;2.50;;
5237;SDS011;2639;49.700;7.962;2022-09-03T21:40:28;2.20;;;2.00;;
5237;SDS011;2639;49.700;7.962;2022-09-03T21:43:41;2.00;;;1.80;;
5237;SDS011;2639;49.700;7.962;2022-09-03T21:46:57;2.37;;;2.17;;
5237;SDS011;2639;49.700;7.962;2022-09-03T21:50:12;2.40;;;2.20;;
5237;SDS011;2639;49.700;7.962;2022-09-03T21:53:28;2.50;;;2.07;;
5237;SDS011;2639;49.700;7.962;2022-09-03T21:56:45;3.20;;;2.90;;
5237;SDS011;2639;49.700;7.962;2022-09-03T22:00:07;2.10;;;1.90;;
5237;SDS011;2639;49.700;7.962;2022-09-03T22:03:20;3.90;;;2.93;;
5237;SDS011;2639;49.700;7.962;2022-09-03T22:06:31;4.43;;;1.70;;
5237;SDS011;2639;49.700;7.962;2022-09-03T22:09:49;2.40;;;1.97;;
5237;SDS011;2639;49.700;7.962;2022-09-03T22:13:09;2.83;;;2.40;;
5237;SDS011;2639;49.700;7.962;2022-09-03T22:16:31;3.60;;;2.30;;
5237;SDS011;2639;49.700;7.962;2022-09-03T22:19:46;2.03;;;1.60;;
5237;SDS011;2639;49.700;7.962;2022-09-03T22:22:57;2.47;;;2.27;;
